sensor_id;sensor_type;location;lat;lon;timestamp;P1;durP1;ratioP1;P2;durP2;ratioP2
7191;SDS011;3637;51.494;11.958;2022-12-07T00:00:07;4.80;;;3.40;;
7191;SDS011;3637;51.494;11.958;2022-12-07T00:03:09;4.83;;;3.43;;
7191;SDS011;3637;51.494;11.958;2022-12-07T00:06:12;7.33;;;4.87;;
7191;SDS011;3637;51.494;11.958;2022-12-07T00:09:16;5.87;;;4.00;;
7191;SDS011;3637;51.494;11.958;2022-12-07T00:12:19;6.90;;;4.67;;
7191;SDS011;3637;51.494;11.958;2022-12-07T00:15:21;6.63;;;4.23;;
7191;SDS011;3637;51.494;11.958;2022-12-07T00:18:23;6.33;;;5.20;;
7191;SDS011;3637;51.494;11.958;2022-12-07T00:21:26;5.87;;;4.47;;
7191;SDS011;3637;51.494;11.958;2022-12-07T00:24:30;6.30;;;4.63;;
7191;SDS011;3637;51.494;11.958;2022-12-07T00:27:32;6.90;;;5.10;;
7191;SDS011;3637;51.494;11.958;2022-12-07T00:30:33;6.70;;;4.13;;
7191;SDS011;3637;51.494;11.958;2022-12-07T00:33:35;7.20;;;4.63;;
7191;SDS011;3637;51.494;11.958;2022-12-07T00:36:38;8.70;;;4.43;;
7191;SDS011;3637;51.494;11.958;2022-12-07T00:39:41;7.30;;;4.93;;
7191;SDS011;3637;51.494;11.958;2022-12-07T00:42:43;7.83;;;5.13;;
7191;SDS011;3637;51.494;11.958;2022-12-07T00:45:45;8.60;;;5.57;;
7191;SDS011;3637;51.494;11.958;2022-12-07T00:48:47;6.73;;;4.90;;
7191;SDS011;3637;51.494;11.958;2022-12-07T00:51:49;6.23;;;4.43;;
7191;SDS011;3637;51.494;11.958;2022-12-07T00:54:53;6.27;;;4.87;;
7191;SDS011;3637;51.494;11.958;2022-12-07T00:57:55;7.77;;;5.03;;
7191;SDS011;3637;51.494;11.958;2022-12-07T01:00:59;6.07;;;5.00;;
7191;SDS011;3637;51.494;11.958;2022-12-07T01:04:01;8.23;;;5.57;;
7191;SDS011;3637;51.494;11.958;2022-12-07T01:07:03;7.70;;;4.67;;
7191;SDS011;3637;51.494;11.958;2022-12-07T01:10:07;7.80;;;4.40;;
7191;SDS011;3637;51.494;11.958;2022-12-07T01:13:09;5.87;;;4.93;;
7191;SDS011;3637;51.494;11.958;2022-12-07T01:16:12;10.47;;;5.23;;
7191;SDS011;3637;51.494;11.958;2022-12-07T01:19:15;7.73;;;5.33;;
7191;SDS011;3637;51.494;11.958;2022-12-07T01:22:17;6.07;;;4.27;;
7191;SDS011;3637;51.494;11.958;2022-12-07T01:25:21;9.30;;;5.60;;
7191;SDS011;3637;51.494;11.958;2022-12-07T01:28:23;7.90;;;5.43;;
7191;SDS011;3637;51.494;11.958;2022-12-07T01:31:25;6.87;;;4.67;;
7191;SDS011;3637;51.494;11.958;2022-12-07T01:34:28;6.37;;;4.83;;
7191;SDS011;3637;51.494;11.958;2022-12-07T01:37:33;7.00;;;5.50;;
7191;SDS011;3637;51.494;11.958;2022-12-07T01:40:38;6.70;;;4.70;;
7191;SDS011;3637;51.494;11.958;2022-12-07T01:44:06;9.07;;;5.50;;
7191;SDS011;3637;51.494;11.958;2022-12-07T01:47:17;7.17;;;5.00;;
7191;SDS011;3637;51.494;11.958;2022-12-07T01:50:19;7.17;;;5.00;;
7191;SDS011;3637;51.494;11.958;2022-12-07T01:53:23;7.77;;;6.27;;
7191;SDS011;3637;51.494;11.958;2022-12-07T01:56:28;9.70;;;5.70;;
7191;SDS011;3637;51.494;11.958;2022-12-07T01:59:31;7.57;;;5.03;;
7191;SDS011;3637;51.494;11.958;2022-12-07T02:02:35;9.90;;;5.90;;
7191;SDS011;3637;51.494;11.958;2022-12-07T02:05:40;7.23;;;4.93;;
7191;SDS011;3637;51.494;11.958;2022-12-07T02:08:42;9.23;;;5.37;;
7191;SDS011;3637;51.494;11.958;2022-12-07T02:11:46;8.63;;;5.50;;
7191;SDS011;3637;51.494;11.958;2022-12-07T02:14:48;8.27;;;5.00;;
7191;SDS011;3637;51.494;11.958;2022-12-07T02:17:52;7.80;;;4.87;;
7191;SDS011;3637;51.494;11.958;2022-12-07T02:21:02;8.50;;;5.33;;
7191;SDS011;3637;51.494;11.958;2022-12-07T02:24:13;8.23;;;5.17;;
7191;SDS011;3637;51.494;11.958;2022-12-07T02:30:48;7.87;;;5.20;;
7191;SDS011;3637;51.494;11.958;2022-12-07T02:33:54;9.53;;;5.67;;
7191;SDS011;3637;51.494;11.958;2022-12-07T02:37:08;8.70;;;5.47;;
7191;SDS011;3637;51.494;11.958;2022-12-07T02:40:16;7.03;;;4.80;;
7191;SDS011;3637;51.494;11.958;2022-12-07T02:43:21;8.47;;;5.50;;
7191;SDS011;3637;51.494;11.958;2022-12-07T02:46:31;8.30;;;5.60;;
7191;SDS011;3637;51.494;11.958;2022-12-07T02:49:36;7.17;;;4.73;;
7191;SDS011;3637;51.494;11.958;2022-12-07T02:52:39;6.83;;;4.63;;
7191;SDS011;3637;51.494;11.958;2022-12-07T02:55:41;8.00;;;5.47;;
7191;SDS011;3637;51.494;11.958;2022-12-07T02:58:46;8.43;;;6.00;;
7191;SDS011;3637;51.494;11.958;2022-12-07T03:01:59;9.17;;;5.70;;
7191;SDS011;3637;51.494;11.958;2022-12-07T03:09:00;8.33;;;5.63;;
7191;SDS011;3637;51.494;11.958;2022-12-07T03:12:09;7.27;;;5.40;;
7191;SDS011;3637;51.494;11.958;2022-12-07T03:15:14;8.13;;;5.60;;
7191;SDS011;3637;51.494;11.958;2022-12-07T03:18:22;7.90;;;5.53;;
7191;SDS011;3637;51.494;11.958;2022-12-07T03:21:27;8.37;;;4.90;;
7191;SDS011;3637;51.494;11.958;2022-12-07T03:24:37;8.73;;;4.80;;
7191;SDS011;3637;51.494;11.958;2022-12-07T03:27:43;7.67;;;5.20;;
7191;SDS011;3637;51.494;11.958;2022-12-07T03:30:49;9.23;;;5.33;;
7191;SDS011;3637;51.494;11.958;2022-12-07T03:33:58;8.07;;;5.23;;
7191;SDS011;3637;51.494;11.958;2022-12-07T03:37:04;8.37;;;5.47;;
7191;SDS011;3637;51.494;11.958;2022-12-07T03:40:11;7.63;;;5.20;;
7191;SDS011;3637;51.494;11.958;2022-12-07T03:43:16;6.67;;;5.27;;
7191;SDS011;3637;51.494;11.958;2022-12-07T03:46:20;9.03;;;5.27;;
7191;SDS011;3637;51.494;11.958;2022-12-07T03:49:37;7.33;;;5.30;;
7191;SDS011;3637;51.494;11.958;2022-12-07T03:52:44;7.23;;;4.80;;
7191;SDS011;3637;51.494;11.958;2022-12-07T03:55:53;8.27;;;5.30;;
7191;SDS011;3637;51.494;11.958;2022-12-07T03:58:57;7.77;;;4.93;;
7191;SDS011;3637;51.494;11.958;2022-12-07T04:02:01;6.57;;;4.53;;
7191;SDS011;3637;51.494;11.958;2022-12-07T04:05:06;6.00;;;4.40;;
7191;SDS011;3637;51.494;11.958;2022-12-07T04:08:09;8.20;;;4.60;;
7191;SDS011;3637;51.494;11.958;2022-12-07T04:11:11;6.90;;;4.60;;
7191;SDS011;3637;51.494;11.958;2022-12-07T04:14:12;6.47;;;4.60;;
7191;SDS011;3637;51.494;11.958;2022-12-07T04:17:20;6.67;;;4.23;;
7191;SDS011;3637;51.494;11.958;2022-12-07T04:20:24;7.83;;;4.27;;
7191;SDS011;3637;51.494;11.958;2022-12-07T04:23:27;7.47;;;5.10;;
7191;SDS011;3637;51.494;11.958;2022-12-07T04:26:29;7.13;;;4.70;;
7191;SDS011;3637;51.494;11.958;2022-12-07T04:29:31;7.13;;;4.90;;
7191;SDS011;3637;51.494;11.958;2022-12-07T04:32:33;7.50;;;4.40;;
7191;SDS011;3637;51.494;11.958;2022-12-07T04:35:36;9.00;;;4.70;;
7191;SDS011;3637;51.494;11.958;2022-12-07T04:38:38;8.17;;;4.97;;
7191;SDS011;3637;51.494;11.958;2022-12-07T04:41:40;5.70;;;4.30;;
7191;SDS011;3637;51.494;11.958;2022-12-07T04:44:42;5.90;;;4.20;;
7191;SDS011;3637;51.494;11.958;2022-12-07T04:47:44;5.90;;;4.23;;
7191;SDS011;3637;51.494;11.958;2022-12-07T04:50:48;6.17;;;4.60;;
7191;SDS011;3637;51.494;11.958;2022-12-07T04:53:50;6.30;;;4.60;;
7191;SDS011;3637;51.494;11.958;2022-12-07T04:56:52;5.60;;;4.27;;
7191;SDS011;3637;51.494;11.958;2022-12-07T04:59:54;4.60;;;3.60;;
7191;SDS011;3637;51.494;11.958;2022-12-07T05:02:56;6.33;;;4.13;;
7191;SDS011;3637;51.494;11.958;2022-12-07T05:05:59;5.47;;;4.17;;
7191;SDS011;3637;51.494;11.958;2022-12-07T05:09:01;6.50;;;4.37;;
7191;SDS011;3637;51.494;11.958;2022-12-07T05:12:04;5.77;;;4.07;;
7191;SDS011;3637;51.494;11.958;2022-12-07T05:15:06;4.93;;;3.97;;
7191;SDS011;3637;51.494;11.958;2022-12-07T05:18:09;5.60;;;4.20;;
7191;SDS011;3637;51.494;11.958;2022-12-07T05:21:13;6.67;;;4.30;;
7191;SDS011;3637;51.494;11.958;2022-12-07T05:24:15;5.13;;;3.53;;
7191;SDS011;3637;51.494;11.958;2022-12-07T05:27:18;4.97;;;3.80;;
7191;SDS011;3637;51.494;11.958;2022-12-07T05:30:20;5.37;;;4.03;;
7191;SDS011;3637;51.494;11.958;2022-12-07T05:33:22;6.13;;;4.47;;
7191;SDS011;3637;51.494;11.958;2022-12-07T05:36:25;7.80;;;4.50;;
7191;SDS011;3637;51.494;11.958;2022-12-07T05:39:28;6.47;;;4.47;;
7191;SDS011;3637;51.494;11.958;2022-12-07T05:42:30;7.43;;;4.20;;
7191;SDS011;3637;51.494;11.958;2022-12-07T05:45:32;5.97;;;4.37;;
7191;SDS011;3637;51.494;11.958;2022-12-07T05:48:36;5.93;;;4.17;;
7191;SDS011;3637;51.494;11.958;2022-12-07T05:51:39;5.13;;;4.10;;
7191;SDS011;3637;51.494;11.958;2022-12-07T05:54:41;7.27;;;4.77;;
7191;SDS011;3637;51.494;11.958;2022-12-07T05:57:43;6.80;;;4.53;;
7191;SDS011;3637;51.494;11.958;2022-12-07T06:01:05;6.60;;;4.80;;
7191;SDS011;3637;51.494;11.958;2022-12-07T06:04:06;6.70;;;5.07;;
7191;SDS011;3637;51.494;11.958;2022-12-07T06:07:09;4.67;;;4.13;;
7191;SDS011;3637;51.494;11.958;2022-12-07T06:10:13;7.87;;;5.83;;
7191;SDS011;3637;51.494;11.958;2022-12-07T06:13:15;7.07;;;4.37;;
7191;SDS011;3637;51.494;11.958;2022-12-07T06:16:16;8.60;;;4.60;;
7191;SDS011;3637;51.494;11.958;2022-12-07T06:19:18;7.00;;;4.47;;
7191;SDS011;3637;51.494;11.958;2022-12-07T06:22:22;7.70;;;4.60;;
7191;SDS011;3637;51.494;11.958;2022-12-07T06:25:23;5.87;;;4.20;;
7191;SDS011;3637;51.494;11.958;2022-12-07T06:28:25;6.90;;;4.63;;
7191;SDS011;3637;51.494;11.958;2022-12-07T06:31:30;7.43;;;4.57;;
7191;SDS011;3637;51.494;11.958;2022-12-07T06:34:32;6.03;;;4.17;;
7191;SDS011;3637;51.494;11.958;2022-12-07T06:37:36;7.37;;;4.87;;
7191;SDS011;3637;51.494;11.958;2022-12-07T06:40:37;7.17;;;5.40;;
7191;SDS011;3637;51.494;11.958;2022-12-07T06:43:39;7.17;;;4.53;;
7191;SDS011;3637;51.494;11.958;2022-12-07T06:46:42;7.67;;;5.43;;
7191;SDS011;3637;51.494;11.958;2022-12-07T06:49:44;8.43;;;5.50;;
7191;SDS011;3637;51.494;11.958;2022-12-07T06:52:47;5.60;;;4.50;;
7191;SDS011;3637;51.494;11.958;2022-12-07T06:55:49;8.33;;;5.23;;
7191;SDS011;3637;51.494;11.958;2022-12-07T06:58:51;7.90;;;5.33;;
7191;SDS011;3637;51.494;11.958;2022-12-07T07:01:53;7.23;;;5.00;;
7191;SDS011;3637;51.494;11.958;2022-12-07T07:04:55;7.27;;;5.70;;
7191;SDS011;3637;51.494;11.958;2022-12-07T07:07:58;8.80;;;5.27;;
7191;SDS011;3637;51.494;11.958;2022-12-07T07:11:00;6.83;;;4.70;;
7191;SDS011;3637;51.494;11.958;2022-12-07T07:14:02;8.77;;;5.17;;
7191;SDS011;3637;51.494;11.958;2022-12-07T07:17:04;7.87;;;5.70;;
7191;SDS011;3637;51.494;11.958;2022-12-07T07:20:06;7.77;;;6.23;;
7191;SDS011;3637;51.494;11.958;2022-12-07T07:23:10;8.97;;;5.47;;
7191;SDS011;3637;51.494;11.958;2022-12-07T07:26:12;8.17;;;5.60;;
7191;SDS011;3637;51.494;11.958;2022-12-07T07:29:14;8.30;;;4.90;;
7191;SDS011;3637;51.494;11.958;2022-12-07T07:32:16;9.50;;;5.50;;
7191;SDS011;3637;51.494;11.958;2022-12-07T07:35:18;6.87;;;5.40;;
7191;SDS011;3637;51.494;11.958;2022-12-07T07:38:21;7.80;;;5.43;;
7191;SDS011;3637;51.494;11.958;2022-12-07T07:41:23;6.97;;;5.33;;
7191;SDS011;3637;51.494;11.958;2022-12-07T07:44:25;7.93;;;5.43;;
7191;SDS011;3637;51.494;11.958;2022-12-07T07:47:30;7.47;;;5.17;;
7191;SDS011;3637;51.494;11.958;2022-12-07T07:50:32;9.20;;;4.93;;
7191;SDS011;3637;51.494;11.958;2022-12-07T07:53:35;10.67;;;6.20;;
7191;SDS011;3637;51.494;11.958;2022-12-07T07:56:37;6.67;;;4.60;;
7191;SDS011;3637;51.494;11.958;2022-12-07T07:59:39;7.37;;;5.20;;
7191;SDS011;3637;51.494;11.958;2022-12-07T08:02:41;7.87;;;5.73;;
7191;SDS011;3637;51.494;11.958;2022-12-07T08:05:44;9.43;;;5.53;;
7191;SDS011;3637;51.494;11.958;2022-12-07T08:08:47;7.73;;;4.90;;
7191;SDS011;3637;51.494;11.958;2022-12-07T08:11:49;8.13;;;4.93;;
7191;SDS011;3637;51.494;11.958;2022-12-07T08:14:51;6.50;;;4.87;;
7191;SDS011;3637;51.494;11.958;2022-12-07T08:17:53;5.43;;;4.23;;
7191;SDS011;3637;51.494;11.958;2022-12-07T08:20:58;5.33;;;4.60;;
7191;SDS011;3637;51.494;11.958;2022-12-07T08:24:03;7.63;;;5.00;;
7191;SDS011;3637;51.494;11.958;2022-12-07T08:27:05;6.33;;;4.83;;
7191;SDS011;3637;51.494;11.958;2022-12-07T08:30:07;6.83;;;5.07;;
7191;SDS011;3637;51.494;11.958;2022-12-07T08:33:10;9.00;;;4.93;;
7191;SDS011;3637;51.494;11.958;2022-12-07T08:36:12;9.97;;;6.03;;
7191;SDS011;3637;51.494;11.958;2022-12-07T08:39:16;9.87;;;5.93;;
7191;SDS011;3637;51.494;11.958;2022-12-07T08:42:18;7.87;;;5.03;;
7191;SDS011;3637;51.494;11.958;2022-12-07T08:45:22;7.50;;;5.20;;
7191;SDS011;3637;51.494;11.958;2022-12-07T08:48:23;8.47;;;5.23;;
7191;SDS011;3637;51.494;11.958;2022-12-07T08:51:26;9.40;;;5.27;;
7191;SDS011;3637;51.494;11.958;2022-12-07T08:54:30;9.57;;;5.37;;
7191;SDS011;3637;51.494;11.958;2022-12-07T08:57:35;9.93;;;5.70;;
7191;SDS011;3637;51.494;11.958;2022-12-07T09:00:38;8.60;;;5.60;;
7191;SDS011;3637;51.494;11.958;2022-12-07T09:03:39;10.57;;;5.53;;
7191;SDS011;3637;51.494;11.958;2022-12-07T09:06:42;6.07;;;4.33;;
7191;SDS011;3637;51.494;11.958;2022-12-07T09:09:45;8.40;;;4.77;;
7191;SDS011;3637;51.494;11.958;2022-12-07T09:12:47;5.03;;;3.10;;
7191;SDS011;3637;51.494;11.958;2022-12-07T09:15:49;6.40;;;3.30;;
7191;SDS011;3637;51.494;11.958;2022-12-07T09:18:51;5.27;;;4.00;;
7191;SDS011;3637;51.494;11.958;2022-12-07T09:21:53;8.50;;;4.37;;
7191;SDS011;3637;51.494;11.958;2022-12-07T09:24:56;6.63;;;4.20;;
7191;SDS011;3637;51.494;11.958;2022-12-07T09:27:58;9.47;;;4.37;;
7191;SDS011;3637;51.494;11.958;2022-12-07T09:31:01;7.63;;;4.43;;
7191;SDS011;3637;51.494;11.958;2022-12-07T09:34:04;6.93;;;4.77;;
7191;SDS011;3637;51.494;11.958;2022-12-07T09:37:07;9.33;;;5.03;;
7191;SDS011;3637;51.494;11.958;2022-12-07T09:40:11;7.07;;;4.73;;
7191;SDS011;3637;51.494;11.958;2022-12-07T09:43:14;13.80;;;5.10;;
7191;SDS011;3637;51.494;11.958;2022-12-07T09:46:19;7.60;;;4.63;;
7191;SDS011;3637;51.494;11.958;2022-12-07T09:49:22;7.87;;;4.97;;
7191;SDS011;3637;51.494;11.958;2022-12-07T09:52:27;10.57;;;5.60;;
7191;SDS011;3637;51.494;11.958;2022-12-07T09:55:33;7.47;;;4.57;;
7191;SDS011;3637;51.494;11.958;2022-12-07T09:58:37;5.97;;;4.27;;
7191;SDS011;3637;51.494;11.958;2022-12-07T10:01:39;6.53;;;4.60;;
7191;SDS011;3637;51.494;11.958;2022-12-07T10:04:42;7.13;;;4.47;;
7191;SDS011;3637;51.494;11.958;2022-12-07T10:07:48;8.47;;;5.20;;
7191;SDS011;3637;51.494;11.958;2022-12-07T10:10:52;8.07;;;4.27;;
7191;SDS011;3637;51.494;11.958;2022-12-07T10:13:56;7.23;;;4.30;;
7191;SDS011;3637;51.494;11.958;2022-12-07T10:17:27;6.90;;;4.37;;
7191;SDS011;3637;51.494;11.958;2022-12-07T10:20:31;6.87;;;3.90;;
7191;SDS011;3637;51.494;11.958;2022-12-07T10:23:34;7.00;;;4.33;;
7191;SDS011;3637;51.494;11.958;2022-12-07T10:26:38;6.73;;;4.77;;
7191;SDS011;3637;51.494;11.958;2022-12-07T10:29:50;5.37;;;3.97;;
7191;SDS011;3637;51.494;11.958;2022-12-07T10:32:53;5.53;;;4.17;;
7191;SDS011;3637;51.494;11.958;2022-12-07T10:35:56;14.37;;;4.33;;
7191;SDS011;3637;51.494;11.958;2022-12-07T10:39:00;5.03;;;3.60;;
7191;SDS011;3637;51.494;11.958;2022-12-07T10:42:05;4.83;;;3.53;;
7191;SDS011;3637;51.494;11.958;2022-12-07T10:45:17;4.47;;;3.43;;
7191;SDS011;3637;51.494;11.958;2022-12-07T10:48:21;4.87;;;3.57;;
7191;SDS011;3637;51.494;11.958;2022-12-07T10:51:34;4.43;;;3.10;;
7191;SDS011;3637;51.494;11.958;2022-12-07T10:54:41;4.20;;;3.23;;
7191;SDS011;3637;51.494;11.958;2022-12-07T10:57:59;4.03;;;2.87;;
7191;SDS011;3637;51.494;11.958;2022-12-07T11:01:11;4.00;;;3.00;;
7191;SDS011;3637;51.494;11.958;2022-12-07T11:04:24;5.83;;;3.10;;
7191;SDS011;3637;51.494;11.958;2022-12-07T11:07:38;3.27;;;2.97;;
7191;SDS011;3637;51.494;11.958;2022-12-07T11:10:48;5.77;;;3.50;;
7191;SDS011;3637;51.494;11.958;2022-12-07T11:13:59;5.87;;;3.53;;
7191;SDS011;3637;51.494;11.958;2022-12-07T11:17:07;6.20;;;3.37;;
7191;SDS011;3637;51.494;11.958;2022-12-07T11:20:19;5.37;;;3.50;;
7191;SDS011;3637;51.494;11.958;2022-12-07T11:23:41;5.53;;;3.60;;
7191;SDS011;3637;51.494;11.958;2022-12-07T11:26:56;4.90;;;3.77;;
7191;SDS011;3637;51.494;11.958;2022-12-07T11:30:14;3.77;;;2.90;;
7191;SDS011;3637;51.494;11.958;2022-12-07T11:33:22;5.23;;;4.17;;
7191;SDS011;3637;51.494;11.958;2022-12-07T11:36:33;5.13;;;4.17;;
7191;SDS011;3637;51.494;11.958;2022-12-07T11:39:39;6.53;;;3.43;;
7191;SDS011;3637;51.494;11.958;2022-12-07T11:42:49;4.87;;;2.93;;
7191;SDS011;3637;51.494;11.958;2022-12-07T11:45:58;4.37;;;3.10;;
7191;SDS011;3637;51.494;11.958;2022-12-07T11:49:07;4.83;;;3.20;;
7191;SDS011;3637;51.494;11.958;2022-12-07T11:52:16;7.37;;;3.23;;
7191;SDS011;3637;51.494;11.958;2022-12-07T11:55:24;4.80;;;3.63;;
7191;SDS011;3637;51.494;11.958;2022-12-07T11:58:35;2.80;;;2.60;;
7191;SDS011;3637;51.494;11.958;2022-12-07T12:01:48;4.67;;;3.77;;
7191;SDS011;3637;51.494;11.958;2022-12-07T12:04:55;4.50;;;3.00;;
7191;SDS011;3637;51.494;11.958;2022-12-07T12:08:03;6.13;;;2.63;;
7191;SDS011;3637;51.494;11.958;2022-12-07T12:11:18;3.97;;;2.67;;
7191;SDS011;3637;51.494;11.958;2022-12-07T12:14:36;3.83;;;2.60;;
7191;SDS011;3637;51.494;11.958;2022-12-07T12:17:56;2.63;;;2.23;;
7191;SDS011;3637;51.494;11.958;2022-12-07T12:21:13;2.47;;;2.27;;
7191;SDS011;3637;51.494;11.958;2022-12-07T12:24:19;2.13;;;1.93;;
7191;SDS011;3637;51.494;11.958;2022-12-07T12:27:26;1.87;;;1.77;;
7191;SDS011;3637;51.494;11.958;2022-12-07T12:30:33;1.83;;;1.73;;
7191;SDS011;3637;51.494;11.958;2022-12-07T12:33:38;2.30;;;2.10;;
7191;SDS011;3637;51.494;11.958;2022-12-07T12:36:46;2.93;;;2.00;;
7191;SDS011;3637;51.494;11.958;2022-12-07T12:46:52;2.40;;;2.00;;
7191;SDS011;3637;51.494;11.958;2022-12-07T12:50:15;3.77;;;2.13;;
7191;SDS011;3637;51.494;11.958;2022-12-07T12:53:22;6.07;;;2.30;;
7191;SDS011;3637;51.494;11.958;2022-12-07T12:56:33;2.77;;;2.10;;
7191;SDS011;3637;51.494;11.958;2022-12-07T12:59:40;2.87;;;2.37;;
7191;SDS011;3637;51.494;11.958;2022-12-07T13:02:49;2.63;;;2.33;;
7191;SDS011;3637;51.494;11.958;2022-12-07T13:09:33;2.20;;;2.00;;
7191;SDS011;3637;51.494;11.958;2022-12-07T13:12:36;2.17;;;1.97;;
7191;SDS011;3637;51.494;11.958;2022-12-07T13:15:42;3.10;;;2.10;;
7191;SDS011;3637;51.494;11.958;2022-12-07T13:18:45;2.63;;;2.20;;
7191;SDS011;3637;51.494;11.958;2022-12-07T13:21:49;2.53;;;2.27;;
7191;SDS011;3637;51.494;11.958;2022-12-07T13:24:57;2.40;;;2.20;;
7191;SDS011;3637;51.494;11.958;2022-12-07T13:28:01;3.77;;;2.30;;
7191;SDS011;3637;51.494;11.958;2022-12-07T13:31:14;2.73;;;2.30;;
7191;SDS011;3637;51.494;11.958;2022-12-07T13:34:28;4.40;;;2.30;;
7191;SDS011;3637;51.494;11.958;2022-12-07T13:37:33;2.40;;;2.20;;
7191;SDS011;3637;51.494;11.958;2022-12-07T13:40:35;7.03;;;2.30;;
7191;SDS011;3637;51.494;11.958;2022-12-07T13:43:48;4.37;;;2.60;;
7191;SDS011;3637;51.494;11.958;2022-12-07T13:46:55;2.93;;;2.43;;
7191;SDS011;3637;51.494;11.958;2022-12-07T13:50:01;5.23;;;2.10;;
7191;SDS011;3637;51.494;11.958;2022-12-07T13:53:25;3.73;;;2.77;;
7191;SDS011;3637;51.494;11.958;2022-12-07T13:56:31;2.93;;;2.17;;
7191;SDS011;3637;51.494;11.958;2022-12-07T13:59:35;3.73;;;2.23;;
7191;SDS011;3637;51.494;11.958;2022-12-07T14:02:53;5.47;;;2.10;;
7191;SDS011;3637;51.494;11.958;2022-12-07T14:06:04;2.77;;;2.17;;
7191;SDS011;3637;51.494;11.958;2022-12-07T14:09:20;1.93;;;1.83;;
7191;SDS011;3637;51.494;11.958;2022-12-07T14:12:24;3.13;;;2.20;;
7191;SDS011;3637;51.494;11.958;2022-12-07T14:15:28;4.10;;;2.83;;
7191;SDS011;3637;51.494;11.958;2022-12-07T14:18:37;2.23;;;2.03;;
7191;SDS011;3637;51.494;11.958;2022-12-07T14:21:41;3.80;;;2.20;;
7191;SDS011;3637;51.494;11.958;2022-12-07T14:24:45;2.20;;;2.00;;
7191;SDS011;3637;51.494;11.958;2022-12-07T14:27:48;4.07;;;2.20;;
7191;SDS011;3637;51.494;11.958;2022-12-07T14:30:53;2.40;;;2.07;;
7191;SDS011;3637;51.494;11.958;2022-12-07T14:33:58;2.83;;;2.23;;
7191;SDS011;3637;51.494;11.958;2022-12-07T14:37:00;2.40;;;2.20;;
7191;SDS011;3637;51.494;11.958;2022-12-07T14:40:04;2.60;;;1.97;;
7191;SDS011;3637;51.494;11.958;2022-12-07T14:43:10;6.53;;;2.60;;
7191;SDS011;3637;51.494;11.958;2022-12-07T14:46:15;2.97;;;2.57;;
7191;SDS011;3637;51.494;11.958;2022-12-07T14:49:18;5.07;;;2.40;;
7191;SDS011;3637;51.494;11.958;2022-12-07T14:52:21;3.23;;;2.10;;
7191;SDS011;3637;51.494;11.958;2022-12-07T14:55:31;2.73;;;2.07;;
7191;SDS011;3637;51.494;11.958;2022-12-07T14:58:34;2.63;;;2.10;;
7191;SDS011;3637;51.494;11.958;2022-12-07T15:01:36;3.30;;;2.30;;
7191;SDS011;3637;51.494;11.958;2022-12-07T15:04:38;3.03;;;2.27;;
7191;SDS011;3637;51.494;11.958;2022-12-07T15:07:40;2.57;;;2.00;;
7191;SDS011;3637;51.494;11.958;2022-12-07T15:10:43;3.53;;;2.27;;
7191;SDS011;3637;51.494;11.958;2022-12-07T15:13:46;6.50;;;2.23;;
7191;SDS011;3637;51.494;11.958;2022-12-07T15:17:05;2.57;;;1.97;;
7191;SDS011;3637;51.494;11.958;2022-12-07T15:20:08;3.37;;;2.27;;
7191;SDS011;3637;51.494;11.958;2022-12-07T15:23:13;2.43;;;2.23;;
7191;SDS011;3637;51.494;11.958;2022-12-07T15:26:16;6.50;;;2.90;;
7191;SDS011;3637;51.494;11.958;2022-12-07T15:29:18;4.97;;;2.50;;
7191;SDS011;3637;51.494;11.958;2022-12-07T15:32:20;1.97;;;1.83;;
7191;SDS011;3637;51.494;11.958;2022-12-07T15:35:23;1.70;;;1.60;;
7191;SDS011;3637;51.494;11.958;2022-12-07T15:38:25;2.63;;;1.80;;
7191;SDS011;3637;51.494;11.958;2022-12-07T15:41:30;2.60;;;1.60;;
7191;SDS011;3637;51.494;11.958;2022-12-07T15:44:31;1.77;;;1.67;;
7191;SDS011;3637;51.494;11.958;2022-12-07T15:47:51;1.77;;;1.67;;
7191;SDS011;3637;51.494;11.958;2022-12-07T15:51:00;1.60;;;1.50;;
7191;SDS011;3637;51.494;11.958;2022-12-07T15:54:03;2.70;;;1.83;;
7191;SDS011;3637;51.494;11.958;2022-12-07T15:57:07;1.80;;;1.70;;
7191;SDS011;3637;51.494;11.958;2022-12-07T16:00:09;1.70;;;1.60;;
7191;SDS011;3637;51.494;11.958;2022-12-07T16:03:12;1.70;;;1.60;;
7191;SDS011;3637;51.494;11.958;2022-12-07T16:06:15;2.07;;;1.80;;
7191;SDS011;3637;51.494;11.958;2022-12-07T16:09:17;1.73;;;1.53;;
7191;SDS011;3637;51.494;11.958;2022-12-07T16:12:21;1.77;;;1.67;;
7191;SDS011;3637;51.494;11.958;2022-12-07T16:15:22;2.27;;;2.07;;
7191;SDS011;3637;51.494;11.958;2022-12-07T16:18:26;2.10;;;1.90;;
7191;SDS011;3637;51.494;11.958;2022-12-07T16:21:28;2.33;;;1.77;;
7191;SDS011;3637;51.494;11.958;2022-12-07T16:24:30;2.60;;;1.77;;
7191;SDS011;3637;51.494;11.958;2022-12-07T16:27:34;1.90;;;1.80;;
7191;SDS011;3637;51.494;11.958;2022-12-07T16:30:36;5.13;;;2.33;;
7191;SDS011;3637;51.494;11.958;2022-12-07T16:33:38;2.13;;;2.00;;
7191;SDS011;3637;51.494;11.958;2022-12-07T16:36:41;2.47;;;2.10;;
7191;SDS011;3637;51.494;11.958;2022-12-07T16:39:43;1.83;;;1.73;;
7191;SDS011;3637;51.494;11.958;2022-12-07T16:42:46;2.30;;;2.10;;
7191;SDS011;3637;51.494;11.958;2022-12-07T16:45:48;3.27;;;2.37;;
7191;SDS011;3637;51.494;11.958;2022-12-07T16:48:50;3.57;;;2.20;;
7191;SDS011;3637;51.494;11.958;2022-12-07T16:51:52;4.03;;;2.30;;
7191;SDS011;3637;51.494;11.958;2022-12-07T16:54:57;2.33;;;2.00;;
7191;SDS011;3637;51.494;11.958;2022-12-07T16:58:01;2.53;;;2.30;;
7191;SDS011;3637;51.494;11.958;2022-12-07T17:01:08;3.43;;;2.00;;
7191;SDS011;3637;51.494;11.958;2022-12-07T17:04:10;5.67;;;2.53;;
7191;SDS011;3637;51.494;11.958;2022-12-07T17:07:12;3.90;;;2.43;;
7191;SDS011;3637;51.494;11.958;2022-12-07T17:10:14;3.43;;;2.23;;
7191;SDS011;3637;51.494;11.958;2022-12-07T17:13:18;5.13;;;2.17;;
7191;SDS011;3637;51.494;11.958;2022-12-07T17:16:37;4.33;;;2.57;;
7191;SDS011;3637;51.494;11.958;2022-12-07T17:19:40;4.73;;;3.17;;
7191;SDS011;3637;51.494;11.958;2022-12-07T17:22:42;4.73;;;2.50;;
7191;SDS011;3637;51.494;11.958;2022-12-07T17:25:44;4.67;;;2.87;;
7191;SDS011;3637;51.494;11.958;2022-12-07T17:28:48;3.37;;;2.50;;
7191;SDS011;3637;51.494;11.958;2022-12-07T17:31:50;3.30;;;2.43;;
7191;SDS011;3637;51.494;11.958;2022-12-07T17:34:52;3.50;;;2.40;;
7191;SDS011;3637;51.494;11.958;2022-12-07T17:37:54;3.70;;;3.03;;
7191;SDS011;3637;51.494;11.958;2022-12-07T17:40:56;5.83;;;2.40;;
7191;SDS011;3637;51.494;11.958;2022-12-07T17:43:59;4.70;;;2.53;;
7191;SDS011;3637;51.494;11.958;2022-12-07T17:47:01;3.07;;;2.60;;
7191;SDS011;3637;51.494;11.958;2022-12-07T17:50:04;3.23;;;2.43;;
7191;SDS011;3637;51.494;11.958;2022-12-07T17:53:08;4.27;;;2.80;;
7191;SDS011;3637;51.494;11.958;2022-12-07T17:56:10;3.53;;;2.77;;
7191;SDS011;3637;51.494;11.958;2022-12-07T17:59:14;7.13;;;3.30;;
7191;SDS011;3637;51.494;11.958;2022-12-07T18:02:18;5.57;;;3.23;;
7191;SDS011;3637;51.494;11.958;2022-12-07T18:05:20;3.60;;;2.43;;
7191;SDS011;3637;51.494;11.958;2022-12-07T18:08:22;8.40;;;2.97;;
7191;SDS011;3637;51.494;11.958;2022-12-07T18:11:24;3.50;;;2.80;;
7191;SDS011;3637;51.494;11.958;2022-12-07T18:14:28;4.67;;;2.47;;
7191;SDS011;3637;51.494;11.958;2022-12-07T18:17:30;5.23;;;2.83;;
7191;SDS011;3637;51.494;11.958;2022-12-07T18:20:32;2.60;;;2.40;;
7191;SDS011;3637;51.494;11.958;2022-12-07T18:23:34;3.57;;;2.70;;
7191;SDS011;3637;51.494;11.958;2022-12-07T18:26:36;3.20;;;2.90;;
7191;SDS011;3637;51.494;11.958;2022-12-07T18:29:39;3.57;;;2.97;;
7191;SDS011;3637;51.494;11.958;2022-12-07T18:32:41;7.37;;;2.87;;
7191;SDS011;3637;51.494;11.958;2022-12-07T18:35:43;3.03;;;2.43;;
7191;SDS011;3637;51.494;11.958;2022-12-07T18:38:45;4.30;;;2.87;;
7191;SDS011;3637;51.494;11.958;2022-12-07T18:41:47;5.60;;;2.97;;
7191;SDS011;3637;51.494;11.958;2022-12-07T18:44:50;5.13;;;3.03;;
7191;SDS011;3637;51.494;11.958;2022-12-07T18:47:52;4.20;;;3.20;;
7191;SDS011;3637;51.494;11.958;2022-12-07T18:50:58;3.93;;;2.80;;
7191;SDS011;3637;51.494;11.958;2022-12-07T18:54:01;6.03;;;3.03;;
7191;SDS011;3637;51.494;11.958;2022-12-07T18:57:03;3.37;;;2.97;;
7191;SDS011;3637;51.494;11.958;2022-12-07T19:00:07;4.63;;;3.23;;
7191;SDS011;3637;51.494;11.958;2022-12-07T19:03:10;5.00;;;3.07;;
7191;SDS011;3637;51.494;11.958;2022-12-07T19:06:14;4.33;;;2.93;;